sensor_id;sensor_type;location;lat;lon;timestamp;P1;durP1;ratioP1;P2;durP2;ratioP2
51358;SDS011;37448;51.588;7.248;2023-02-20T00:01:54;4.57;;;2.95;;
51358;SDS011;37448;51.588;7.248;2023-02-20T00:03:56;4.63;;;2.58;;
51358;SDS011;37448;51.588;7.248;2023-02-20T00:05:56;6.47;;;3.00;;
51358;SDS011;37448;51.588;7.248;2023-02-20T00:07:57;4.55;;;2.67;;
51358;SDS011;37448;51.588;7.248;2023-02-20T00:09:57;6.85;;;2.95;;
51358;SDS011;37448;51.588;7.248;2023-02-20T00:11:57;7.43;;;3.28;;
51358;SDS011;37448;51.588;7.248;2023-02-20T00:13:58;4.75;;;3.03;;
51358;SDS011;37448;51.588;7.248;2023-02-20T00:15:58;5.22;;;3.10;;
51358;SDS011;37448;51.588;7.248;2023-02-20T00:17:59;7.20;;;3.90;;
51358;SDS011;37448;51.588;7.248;2023-02-20T00:19:59;5.75;;;2.70;;
51358;SDS011;37448;51.588;7.248;2023-02-20T00:22:00;8.25;;;4.00;;
51358;SDS011;37448;51.588;7.248;2023-02-20T00:24:01;7.55;;;4.13;;
51358;SDS011;37448;51.588;7.248;2023-02-20T00:26:01;6.60;;;4.05;;
51358;SDS011;37448;51.588;7.248;2023-02-20T00:28:02;6.47;;;3.47;;
51358;SDS011;37448;51.588;7.248;2023-02-20T00:30:03;6.85;;;3.80;;
51358;SDS011;37448;51.588;7.248;2023-02-20T00:32:04;6.10;;;3.63;;
51358;SDS011;37448;51.588;7.248;2023-02-20T00:34:05;7.97;;;5.18;;
51358;SDS011;37448;51.588;7.248;2023-02-20T00:36:06;9.30;;;4.07;;
51358;SDS011;37448;51.588;7.248;2023-02-20T00:38:06;7.43;;;4.20;;
51358;SDS011;37448;51.588;7.248;2023-02-20T00:40:07;9.35;;;4.70;;
51358;SDS011;37448;51.588;7.248;2023-02-20T00:42:08;7.85;;;5.10;;
51358;SDS011;37448;51.588;7.248;2023-02-20T00:44:08;9.98;;;5.38;;
51358;SDS011;37448;51.588;7.248;2023-02-20T00:46:12;9.07;;;4.55;;
51358;SDS011;37448;51.588;7.248;2023-02-20T00:48:13;7.10;;;4.55;;
51358;SDS011;37448;51.588;7.248;2023-02-20T00:50:14;9.13;;;4.68;;
51358;SDS011;37448;51.588;7.248;2023-02-20T00:52:15;11.23;;;4.45;;
51358;SDS011;37448;51.588;7.248;2023-02-20T00:54:16;7.72;;;4.30;;
51358;SDS011;37448;51.588;7.248;2023-02-20T00:56:16;7.95;;;4.03;;
51358;SDS011;37448;51.588;7.248;2023-02-20T00:58:17;8.55;;;4.25;;
51358;SDS011;37448;51.588;7.248;2023-02-20T01:00:19;10.15;;;4.82;;
51358;SDS011;37448;51.588;7.248;2023-02-20T01:02:27;10.98;;;5.00;;
51358;SDS011;37448;51.588;7.248;2023-02-20T01:04:27;9.52;;;4.50;;
51358;SDS011;37448;51.588;7.248;2023-02-20T01:06:28;11.23;;;5.28;;
51358;SDS011;37448;51.588;7.248;2023-02-20T01:08:28;9.65;;;4.47;;
51358;SDS011;37448;51.588;7.248;2023-02-20T01:10:29;10.20;;;5.03;;
51358;SDS011;37448;51.588;7.248;2023-02-20T01:12:30;9.18;;;4.53;;
51358;SDS011;37448;51.588;7.248;2023-02-20T01:14:30;12.20;;;5.57;;
51358;SDS011;37448;51.588;7.248;2023-02-20T01:16:33;13.90;;;6.60;;
51358;SDS011;37448;51.588;7.248;2023-02-20T01:18:35;9.05;;;5.05;;
51358;SDS011;37448;51.588;7.248;2023-02-20T01:20:36;11.40;;;5.80;;
51358;SDS011;37448;51.588;7.248;2023-02-20T01:22:37;13.77;;;6.05;;
51358;SDS011;37448;51.588;7.248;2023-02-20T01:24:37;11.70;;;6.35;;
51358;SDS011;37448;51.588;7.248;2023-02-20T01:26:39;11.63;;;5.03;;
51358;SDS011;37448;51.588;7.248;2023-02-20T01:28:44;11.40;;;5.30;;
51358;SDS011;37448;51.588;7.248;2023-02-20T01:30:45;11.00;;;5.65;;
51358;SDS011;37448;51.588;7.248;2023-02-20T01:32:45;14.45;;;5.75;;
51358;SDS011;37448;51.588;7.248;2023-02-20T01:34:45;12.73;;;5.93;;
51358;SDS011;37448;51.588;7.248;2023-02-20T01:36:49;15.65;;;6.82;;
51358;SDS011;37448;51.588;7.248;2023-02-20T01:38:51;13.73;;;6.90;;
51358;SDS011;37448;51.588;7.248;2023-02-20T01:40:54;13.23;;;6.28;;
51358;SDS011;37448;51.588;7.248;2023-02-20T01:42:54;18.35;;;6.63;;
51358;SDS011;37448;51.588;7.248;2023-02-20T01:45:10;12.07;;;6.50;;
51358;SDS011;37448;51.588;7.248;2023-02-20T01:47:14;15.13;;;7.38;;
51358;SDS011;37448;51.588;7.248;2023-02-20T01:49:19;11.50;;;5.78;;
51358;SDS011;37448;51.588;7.248;2023-02-20T01:51:24;14.75;;;6.68;;
51358;SDS011;37448;51.588;7.248;2023-02-20T01:53:25;10.77;;;6.35;;
51358;SDS011;37448;51.588;7.248;2023-02-20T01:55:30;12.70;;;6.13;;
51358;SDS011;37448;51.588;7.248;2023-02-20T01:57:35;14.18;;;6.47;;
51358;SDS011;37448;51.588;7.248;2023-02-20T01:59:39;14.15;;;6.55;;
51358;SDS011;37448;51.588;7.248;2023-02-20T02:01:41;12.65;;;5.80;;
51358;SDS011;37448;51.588;7.248;2023-02-20T02:03:42;15.35;;;6.30;;
51358;SDS011;37448;51.588;7.248;2023-02-20T02:05:46;9.75;;;6.47;;
51358;SDS011;37448;51.588;7.248;2023-02-20T02:07:51;12.20;;;6.10;;
51358;SDS011;37448;51.588;7.248;2023-02-20T02:09:52;14.52;;;5.90;;
51358;SDS011;37448;51.588;7.248;2023-02-20T02:12:01;13.32;;;5.55;;
51358;SDS011;37448;51.588;7.248;2023-02-20T02:14:03;11.82;;;5.95;;
51358;SDS011;37448;51.588;7.248;2023-02-20T02:16:13;10.88;;;5.65;;
51358;SDS011;37448;51.588;7.248;2023-02-20T02:18:29;9.93;;;5.50;;
51358;SDS011;37448;51.588;7.248;2023-02-20T02:23:03;13.32;;;6.07;;
51358;SDS011;37448;51.588;7.248;2023-02-20T02:42:54;10.15;;;4.63;;
51358;SDS011;37448;51.588;7.248;2023-02-20T02:45:10;11.30;;;6.18;;
51358;SDS011;37448;51.588;7.248;2023-02-20T02:51:48;12.95;;;6.15;;
51358;SDS011;37448;51.588;7.248;2023-02-20T02:54:14;12.80;;;6.45;;
51358;SDS011;37448;51.588;7.248;2023-02-20T02:56:18;14.07;;;6.43;;
51358;SDS011;37448;51.588;7.248;2023-02-20T02:58:22;12.30;;;5.95;;
51358;SDS011;37448;51.588;7.248;2023-02-20T03:00:24;11.70;;;5.78;;
51358;SDS011;37448;51.588;7.248;2023-02-20T03:02:30;13.45;;;6.68;;
51358;SDS011;37448;51.588;7.248;2023-02-20T03:04:34;15.52;;;6.75;;
51358;SDS011;37448;51.588;7.248;2023-02-20T03:06:40;15.45;;;7.20;;
51358;SDS011;37448;51.588;7.248;2023-02-20T03:08:47;15.32;;;7.53;;
51358;SDS011;37448;51.588;7.248;2023-02-20T03:10:58;14.20;;;6.93;;
51358;SDS011;37448;51.588;7.248;2023-02-20T03:13:03;16.70;;;7.35;;
51358;SDS011;37448;51.588;7.248;2023-02-20T03:15:06;16.40;;;7.50;;
51358;SDS011;37448;51.588;7.248;2023-02-20T03:17:37;16.95;;;7.85;;
51358;SDS011;37448;51.588;7.248;2023-02-20T03:19:45;17.60;;;7.35;;
51358;SDS011;37448;51.588;7.248;2023-02-20T03:21:48;13.77;;;6.88;;
51358;SDS011;37448;51.588;7.248;2023-02-20T03:23:52;15.75;;;7.75;;
51358;SDS011;37448;51.588;7.248;2023-02-20T03:25:58;15.63;;;6.78;;
51358;SDS011;37448;51.588;7.248;2023-02-20T03:28:04;14.20;;;7.57;;
51358;SDS011;37448;51.588;7.248;2023-02-20T03:30:23;18.05;;;8.10;;
51358;SDS011;37448;51.588;7.248;2023-02-20T03:32:31;14.82;;;7.03;;
51358;SDS011;37448;51.588;7.248;2023-02-20T03:34:52;15.52;;;6.78;;
51358;SDS011;37448;51.588;7.248;2023-02-20T03:37:18;19.25;;;8.07;;
51358;SDS011;37448;51.588;7.248;2023-02-20T03:39:40;20.25;;;7.68;;
51358;SDS011;37448;51.588;7.248;2023-02-20T03:42:05;13.95;;;7.85;;
51358;SDS011;37448;51.588;7.248;2023-02-20T03:44:35;17.10;;;6.80;;
51358;SDS011;37448;51.588;7.248;2023-02-20T03:46:37;14.50;;;6.97;;
51358;SDS011;37448;51.588;7.248;2023-02-20T03:48:45;21.38;;;7.32;;
51358;SDS011;37448;51.588;7.248;2023-02-20T03:50:47;13.27;;;6.30;;
51358;SDS011;37448;51.588;7.248;2023-02-20T03:53:14;14.57;;;6.07;;
51358;SDS011;37448;51.588;7.248;2023-02-20T03:55:15;14.30;;;7.35;;
51358;SDS011;37448;51.588;7.248;2023-02-20T03:57:20;13.05;;;6.45;;
51358;SDS011;37448;51.588;7.248;2023-02-20T03:59:44;12.45;;;6.68;;
51358;SDS011;37448;51.588;7.248;2023-02-20T04:01:50;15.48;;;6.78;;
51358;SDS011;37448;51.588;7.248;2023-02-20T04:03:55;14.25;;;6.43;;
51358;SDS011;37448;51.588;7.248;2023-02-20T04:05:57;17.35;;;6.65;;
51358;SDS011;37448;51.588;7.248;2023-02-20T04:08:07;21.33;;;7.00;;
51358;SDS011;37448;51.588;7.248;2023-02-20T04:10:14;14.93;;;7.32;;
51358;SDS011;37448;51.588;7.248;2023-02-20T04:12:24;16.35;;;6.97;;
51358;SDS011;37448;51.588;7.248;2023-02-20T04:14:28;16.60;;;6.60;;
51358;SDS011;37448;51.588;7.248;2023-02-20T04:18:35;15.40;;;6.18;;
51358;SDS011;37448;51.588;7.248;2023-02-20T04:20:37;13.52;;;6.45;;
51358;SDS011;37448;51.588;7.248;2023-02-20T04:22:48;14.13;;;6.05;;
51358;SDS011;37448;51.588;7.248;2023-02-20T04:24:56;21.83;;;6.55;;
51358;SDS011;37448;51.588;7.248;2023-02-20T04:29:03;16.50;;;7.45;;
51358;SDS011;37448;51.588;7.248;2023-02-20T04:31:04;16.63;;;7.40;;
51358;SDS011;37448;51.588;7.248;2023-02-20T04:33:10;18.30;;;6.55;;
51358;SDS011;37448;51.588;7.248;2023-02-20T04:35:16;13.57;;;6.32;;
51358;SDS011;37448;51.588;7.248;2023-02-20T04:37:18;14.13;;;6.05;;
51358;SDS011;37448;51.588;7.248;2023-02-20T04:39:20;16.00;;;6.28;;
51358;SDS011;37448;51.588;7.248;2023-02-20T04:41:21;12.20;;;5.53;;
51358;SDS011;37448;51.588;7.248;2023-02-20T04:43:22;13.63;;;6.75;;
51358;SDS011;37448;51.588;7.248;2023-02-20T04:45:22;20.45;;;6.50;;
51358;SDS011;37448;51.588;7.248;2023-02-20T04:47:23;13.15;;;6.63;;
51358;SDS011;37448;51.588;7.248;2023-02-20T04:49:23;16.58;;;7.68;;
51358;SDS011;37448;51.588;7.248;2023-02-20T04:51:27;17.70;;;7.65;;
51358;SDS011;37448;51.588;7.248;2023-02-20T04:53:27;15.30;;;7.30;;
51358;SDS011;37448;51.588;7.248;2023-02-20T04:55:27;13.15;;;6.60;;
51358;SDS011;37448;51.588;7.248;2023-02-20T04:57:31;13.65;;;6.10;;
51358;SDS011;37448;51.588;7.248;2023-02-20T04:59:31;14.85;;;7.30;;
51358;SDS011;37448;51.588;7.248;2023-02-20T05:01:32;13.27;;;6.70;;
51358;SDS011;37448;51.588;7.248;2023-02-20T05:03:32;16.75;;;6.32;;
51358;SDS011;37448;51.588;7.248;2023-02-20T05:05:33;13.70;;;6.05;;
51358;SDS011;37448;51.588;7.248;2023-02-20T05:07:33;16.25;;;6.40;;
51358;SDS011;37448;51.588;7.248;2023-02-20T05:09:33;14.07;;;6.10;;
51358;SDS011;37448;51.588;7.248;2023-02-20T05:11:34;10.60;;;5.25;;
51358;SDS011;37448;51.588;7.248;2023-02-20T05:13:34;11.80;;;5.53;;
51358;SDS011;37448;51.588;7.248;2023-02-20T05:15:34;11.02;;;5.00;;
51358;SDS011;37448;51.588;7.248;2023-02-20T05:17:35;14.65;;;5.38;;
51358;SDS011;37448;51.588;7.248;2023-02-20T05:19:36;15.07;;;6.32;;
51358;SDS011;37448;51.588;7.248;2023-02-20T05:21:36;12.75;;;5.50;;
51358;SDS011;37448;51.588;7.248;2023-02-20T05:23:56;13.32;;;5.20;;
51358;SDS011;37448;51.588;7.248;2023-02-20T05:25:56;14.00;;;5.53;;
51358;SDS011;37448;51.588;7.248;2023-02-20T05:27:56;14.77;;;6.18;;
51358;SDS011;37448;51.588;7.248;2023-02-20T05:29:58;9.93;;;5.13;;
51358;SDS011;37448;51.588;7.248;2023-02-20T05:31:59;11.25;;;5.40;;
51358;SDS011;37448;51.588;7.248;2023-02-20T05:34:00;12.68;;;6.22;;
51358;SDS011;37448;51.588;7.248;2023-02-20T05:36:00;13.48;;;5.00;;
51358;SDS011;37448;51.588;7.248;2023-02-20T05:38:00;10.35;;;5.25;;
51358;SDS011;37448;51.588;7.248;2023-02-20T05:40:01;10.77;;;5.40;;
51358;SDS011;37448;51.588;7.248;2023-02-20T05:42:01;17.58;;;5.70;;
51358;SDS011;37448;51.588;7.248;2023-02-20T05:44:02;11.45;;;5.72;;
51358;SDS011;37448;51.588;7.248;2023-02-20T05:46:03;10.63;;;5.15;;
51358;SDS011;37448;51.588;7.248;2023-02-20T05:48:03;15.13;;;5.85;;
51358;SDS011;37448;51.588;7.248;2023-02-20T05:50:04;12.07;;;6.43;;
51358;SDS011;37448;51.588;7.248;2023-02-20T05:52:05;12.45;;;4.47;;
51358;SDS011;37448;51.588;7.248;2023-02-20T05:54:10;10.35;;;4.68;;
51358;SDS011;37448;51.588;7.248;2023-02-20T05:56:10;12.98;;;5.93;;
51358;SDS011;37448;51.588;7.248;2023-02-20T05:58:11;10.05;;;4.78;;
51358;SDS011;37448;51.588;7.248;2023-02-20T06:00:11;12.10;;;5.25;;
51358;SDS011;37448;51.588;7.248;2023-02-20T06:02:12;12.68;;;6.22;;
51358;SDS011;37448;51.588;7.248;2023-02-20T06:04:13;11.60;;;5.65;;
51358;SDS011;37448;51.588;7.248;2023-02-20T06:06:13;13.93;;;5.95;;
51358;SDS011;37448;51.588;7.248;2023-02-20T06:08:14;12.65;;;6.60;;
51358;SDS011;37448;51.588;7.248;2023-02-20T06:10:16;15.85;;;6.75;;
51358;SDS011;37448;51.588;7.248;2023-02-20T06:12:17;16.25;;;7.25;;
51358;SDS011;37448;51.588;7.248;2023-02-20T06:14:18;18.27;;;7.20;;
51358;SDS011;37448;51.588;7.248;2023-02-20T06:16:21;18.38;;;7.70;;
51358;SDS011;37448;51.588;7.248;2023-02-20T06:18:25;14.05;;;7.32;;
51358;SDS011;37448;51.588;7.248;2023-02-20T06:20:26;16.88;;;6.97;;
51358;SDS011;37448;51.588;7.248;2023-02-20T06:22:26;20.05;;;8.05;;
51358;SDS011;37448;51.588;7.248;2023-02-20T06:24:26;18.48;;;9.10;;
51358;SDS011;37448;51.588;7.248;2023-02-20T06:26:28;17.50;;;9.40;;
51358;SDS011;37448;51.588;7.248;2023-02-20T06:28:28;19.08;;;9.65;;
51358;SDS011;37448;51.588;7.248;2023-02-20T06:30:29;18.75;;;9.35;;
51358;SDS011;37448;51.588;7.248;2023-02-20T06:32:29;23.00;;;11.23;;
51358;SDS011;37448;51.588;7.248;2023-02-20T06:34:29;19.52;;;9.80;;
51358;SDS011;37448;51.588;7.248;2023-02-20T06:36:34;19.45;;;11.20;;
51358;SDS011;37448;51.588;7.248;2023-02-20T06:38:36;20.20;;;11.20;;
51358;SDS011;37448;51.588;7.248;2023-02-20T06:40:37;20.58;;;11.15;;
51358;SDS011;37448;51.588;7.248;2023-02-20T06:42:37;20.92;;;10.88;;
51358;SDS011;37448;51.588;7.248;2023-02-20T06:44:38;22.42;;;12.50;;
51358;SDS011;37448;51.588;7.248;2023-02-20T06:46:38;23.45;;;12.10;;
51358;SDS011;37448;51.588;7.248;2023-02-20T06:48:57;24.27;;;13.00;;
51358;SDS011;37448;51.588;7.248;2023-02-20T06:50:59;27.90;;;12.65;;
51358;SDS011;37448;51.588;7.248;2023-02-20T06:52:59;27.88;;;13.30;;
51358;SDS011;37448;51.588;7.248;2023-02-20T06:55:00;20.05;;;12.18;;
51358;SDS011;37448;51.588;7.248;2023-02-20T06:57:00;22.30;;;12.35;;
51358;SDS011;37448;51.588;7.248;2023-02-20T06:59:02;29.13;;;15.85;;
51358;SDS011;37448;51.588;7.248;2023-02-20T07:01:04;24.05;;;12.35;;
51358;SDS011;37448;51.588;7.248;2023-02-20T07:03:04;26.80;;;13.55;;
51358;SDS011;37448;51.588;7.248;2023-02-20T07:05:05;24.60;;;13.52;;
51358;SDS011;37448;51.588;7.248;2023-02-20T07:07:06;28.42;;;13.68;;
51358;SDS011;37448;51.588;7.248;2023-02-20T07:09:06;26.85;;;13.82;;
51358;SDS011;37448;51.588;7.248;2023-02-20T07:11:07;21.60;;;12.52;;
51358;SDS011;37448;51.588;7.248;2023-02-20T07:13:08;24.92;;;13.98;;
51358;SDS011;37448;51.588;7.248;2023-02-20T07:15:09;24.95;;;12.35;;
51358;SDS011;37448;51.588;7.248;2023-02-20T07:17:11;22.55;;;11.43;;
51358;SDS011;37448;51.588;7.248;2023-02-20T07:19:11;18.52;;;10.32;;
51358;SDS011;37448;51.588;7.248;2023-02-20T07:21:12;18.85;;;10.07;;
51358;SDS011;37448;51.588;7.248;2023-02-20T07:23:12;19.48;;;9.65;;
51358;SDS011;37448;51.588;7.248;2023-02-20T07:25:12;22.25;;;11.63;;
51358;SDS011;37448;51.588;7.248;2023-02-20T07:27:13;17.70;;;9.07;;
51358;SDS011;37448;51.588;7.248;2023-02-20T07:29:13;24.20;;;10.15;;
51358;SDS011;37448;51.588;7.248;2023-02-20T07:31:14;19.02;;;9.80;;
51358;SDS011;37448;51.588;7.248;2023-02-20T07:33:17;19.92;;;9.40;;
51358;SDS011;37448;51.588;7.248;2023-02-20T07:35:18;20.85;;;9.68;;
51358;SDS011;37448;51.588;7.248;2023-02-20T07:37:18;22.17;;;11.15;;
51358;SDS011;37448;51.588;7.248;2023-02-20T07:39:19;17.77;;;9.65;;
51358;SDS011;37448;51.588;7.248;2023-02-20T07:41:19;20.58;;;9.73;;
51358;SDS011;37448;51.588;7.248;2023-02-20T07:43:20;25.38;;;9.75;;
51358;SDS011;37448;51.588;7.248;2023-02-20T07:45:24;21.27;;;10.10;;
51358;SDS011;37448;51.588;7.248;2023-02-20T07:47:24;18.83;;;10.02;;
51358;SDS011;37448;51.588;7.248;2023-02-20T07:49:25;17.10;;;8.15;;
51358;SDS011;37448;51.588;7.248;2023-02-20T07:51:25;14.40;;;8.30;;
51358;SDS011;37448;51.588;7.248;2023-02-20T07:53:25;20.50;;;10.02;;
51358;SDS011;37448;51.588;7.248;2023-02-20T07:55:26;18.15;;;9.32;;
51358;SDS011;37448;51.588;7.248;2023-02-20T07:57:33;18.73;;;9.55;;
51358;SDS011;37448;51.588;7.248;2023-02-20T07:59:35;21.15;;;9.18;;
51358;SDS011;37448;51.588;7.248;2023-02-20T08:01:35;17.60;;;10.38;;
51358;SDS011;37448;51.588;7.248;2023-02-20T08:03:36;17.92;;;9.60;;
51358;SDS011;37448;51.588;7.248;2023-02-20T08:05:36;20.27;;;9.73;;
51358;SDS011;37448;51.588;7.248;2023-02-20T08:07:36;21.10;;;8.88;;
51358;SDS011;37448;51.588;7.248;2023-02-20T08:09:37;22.02;;;10.70;;
51358;SDS011;37448;51.588;7.248;2023-02-20T08:11:37;23.13;;;11.77;;
51358;SDS011;37448;51.588;7.248;2023-02-20T08:13:38;22.17;;;11.38;;
51358;SDS011;37448;51.588;7.248;2023-02-20T08:15:38;22.17;;;11.27;;
51358;SDS011;37448;51.588;7.248;2023-02-20T08:17:40;24.58;;;10.43;;
51358;SDS011;37448;51.588;7.248;2023-02-20T08:19:41;21.83;;;10.90;;
51358;SDS011;37448;51.588;7.248;2023-02-20T08:21:41;23.17;;;10.13;;
51358;SDS011;37448;51.588;7.248;2023-02-20T08:23:42;23.02;;;10.15;;
51358;SDS011;37448;51.588;7.248;2023-02-20T08:25:42;22.58;;;10.70;;
51358;SDS011;37448;51.588;7.248;2023-02-20T08:27:43;20.80;;;9.32;;
51358;SDS011;37448;51.588;7.248;2023-02-20T08:29:44;20.20;;;10.25;;
51358;SDS011;37448;51.588;7.248;2023-02-20T08:31:45;21.45;;;10.40;;
51358;SDS011;37448;51.588;7.248;2023-02-20T08:33:45;20.85;;;9.98;;
51358;SDS011;37448;51.588;7.248;2023-02-20T08:35:46;21.90;;;10.15;;
51358;SDS011;37448;51.588;7.248;2023-02-20T08:37:49;19.73;;;10.77;;
51358;SDS011;37448;51.588;7.248;2023-02-20T08:39:49;23.23;;;10.50;;
51358;SDS011;37448;51.588;7.248;2023-02-20T08:41:50;21.92;;;9.80;;
51358;SDS011;37448;51.588;7.248;2023-02-20T08:43:50;25.27;;;11.10;;
51358;SDS011;37448;51.588;7.248;2023-02-20T08:45:50;24.77;;;11.48;;
51358;SDS011;37448;51.588;7.248;2023-02-20T08:47:55;23.30;;;10.63;;
51358;SDS011;37448;51.588;7.248;2023-02-20T08:49:58;23.17;;;11.05;;
51358;SDS011;37448;51.588;7.248;2023-02-20T08:51:59;20.50;;;11.02;;
51358;SDS011;37448;51.588;7.248;2023-02-20T08:53:59;22.30;;;11.48;;
51358;SDS011;37448;51.588;7.248;2023-02-20T08:55:59;22.70;;;10.45;;
51358;SDS011;37448;51.588;7.248;2023-02-20T08:58:00;26.60;;;10.85;;
51358;SDS011;37448;51.588;7.248;2023-02-20T09:00:00;22.45;;;10.60;;
51358;SDS011;37448;51.588;7.248;2023-02-20T09:02:01;24.77;;;12.05;;
51358;SDS011;37448;51.588;7.248;2023-02-20T09:04:01;19.63;;;9.20;;
51358;SDS011;37448;51.588;7.248;2023-02-20T09:06:02;19.52;;;9.82;;
51358;SDS011;37448;51.588;7.248;2023-02-20T09:08:03;20.63;;;9.48;;
51358;SDS011;37448;51.588;7.248;2023-02-20T09:10:03;20.50;;;9.98;;
51358;SDS011;37448;51.588;7.248;2023-02-20T09:12:04;23.23;;;10.57;;
51358;SDS011;37448;51.588;7.248;2023-02-20T09:14:05;23.05;;;10.02;;
51358;SDS011;37448;51.588;7.248;2023-02-20T09:16:06;20.25;;;9.43;;
51358;SDS011;37448;51.588;7.248;2023-02-20T09:18:07;19.33;;;9.65;;
51358;SDS011;37448;51.588;7.248;2023-02-20T09:20:10;20.00;;;10.13;;
51358;SDS011;37448;51.588;7.248;2023-02-20T09:22:11;21.58;;;10.57;;
51358;SDS011;37448;51.588;7.248;2023-02-20T09:24:11;20.92;;;10.32;;
51358;SDS011;37448;51.588;7.248;2023-02-20T09:26:11;19.10;;;9.00;;
51358;SDS011;37448;51.588;7.248;2023-02-20T09:28:12;20.58;;;11.35;;
51358;SDS011;37448;51.588;7.248;2023-02-20T09:30:16;23.42;;;11.60;;
51358;SDS011;37448;51.588;7.248;2023-02-20T09:32:18;23.40;;;11.50;;
51358;SDS011;37448;51.588;7.248;2023-02-20T09:34:19;21.38;;;10.30;;
51358;SDS011;37448;51.588;7.248;2023-02-20T09:36:20;19.80;;;11.15;;
51358;SDS011;37448;51.588;7.248;2023-02-20T09:38:21;20.67;;;10.45;;
51358;SDS011;37448;51.588;7.248;2023-02-20T09:40:26;26.45;;;11.40;;
51358;SDS011;37448;51.588;7.248;2023-02-20T09:42:35;25.77;;;11.60;;
51358;SDS011;37448;51.588;7.248;2023-02-20T09:49:46;23.13;;;11.85;;
51358;SDS011;37448;51.588;7.248;2023-02-20T09:51:50;23.63;;;11.82;;
51358;SDS011;37448;51.588;7.248;2023-02-20T09:54:07;26.10;;;11.27;;
51358;SDS011;37448;51.588;7.248;2023-02-20T09:56:22;21.17;;;11.23;;
51358;SDS011;37448;51.588;7.248;2023-02-20T09:58:28;30.10;;;12.02;;
51358;SDS011;37448;51.588;7.248;2023-02-20T10:00:40;31.35;;;14.10;;
51358;SDS011;37448;51.588;7.248;2023-02-20T10:02:41;20.58;;;11.38;;
51358;SDS011;37448;51.588;7.248;2023-02-20T10:04:51;19.73;;;10.60;;
51358;SDS011;37448;51.588;7.248;2023-02-20T10:06:56;19.95;;;9.75;;
51358;SDS011;37448;51.588;7.248;2023-02-20T10:09:04;24.42;;;10.57;;
51358;SDS011;37448;51.588;7.248;2023-02-20T10:11:11;27.45;;;12.18;;
51358;SDS011;37448;51.588;7.248;2023-02-20T10:13:30;22.65;;;12.10;;
51358;SDS011;37448;51.588;7.248;2023-02-20T10:22:34;26.25;;;12.45;;
51358;SDS011;37448;51.588;7.248;2023-02-20T10:24:43;26.15;;;12.38;;
51358;SDS011;37448;51.588;7.248;2023-02-20T10:26:46;24.77;;;12.18;;
51358;SDS011;37448;51.588;7.248;2023-02-20T10:28:53;21.25;;;11.30;;
51358;SDS011;37448;51.588;7.248;2023-02-20T10:33:25;28.27;;;12.10;;
51358;SDS011;37448;51.588;7.248;2023-02-20T10:35:47;24.13;;;12.15;;
51358;SDS011;37448;51.588;7.248;2023-02-20T10:37:54;26.13;;;11.00;;
51358;SDS011;37448;51.588;7.248;2023-02-20T10:40:20;21.05;;;10.60;;
51358;SDS011;37448;51.588;7.248;2023-02-20T10:42:30;23.08;;;10.18;;
51358;SDS011;37448;51.588;7.248;2023-02-20T10:49:13;23.25;;;11.27;;
51358;SDS011;37448;51.588;7.248;2023-02-20T10:51:27;23.38;;;11.88;;
51358;SDS011;37448;51.588;7.248;2023-02-20T10:53:40;24.30;;;12.27;;
51358;SDS011;37448;51.588;7.248;2023-02-20T10:58:32;24.45;;;13.07;;
51358;SDS011;37448;51.588;7.248;2023-02-20T11:02:47;19.75;;;11.25;;
51358;SDS011;37448;51.588;7.248;2023-02-20T11:04:58;25.35;;;11.30;;
51358;SDS011;37448;51.588;7.248;2023-02-20T11:07:04;26.52;;;12.20;;
51358;SDS011;37448;51.588;7.248;2023-02-20T11:09:08;22.48;;;11.23;;
51358;SDS011;37448;51.588;7.248;2023-02-20T11:13:30;22.33;;;11.18;;
51358;SDS011;37448;51.588;7.248;2023-02-20T11:15:31;25.40;;;12.73;;
51358;SDS011;37448;51.588;7.248;2023-02-20T11:17:33;25.60;;;11.82;;
51358;SDS011;37448;51.588;7.248;2023-02-20T11:19:50;21.40;;;11.93;;
51358;SDS011;37448;51.588;7.248;2023-02-20T11:22:01;22.17;;;11.23;;
51358;SDS011;37448;51.588;7.248;2023-02-20T11:24:18;21.40;;;11.20;;
51358;SDS011;37448;51.588;7.248;2023-02-20T11:28:22;21.83;;;11.23;;
51358;SDS011;37448;51.588;7.248;2023-02-20T11:34:34;19.83;;;10.10;;
51358;SDS011;37448;51.588;7.248;2023-02-20T11:36:38;27.20;;;11.13;;
51358;SDS011;37448;51.588;7.248;2023-02-20T11:38:44;23.73;;;13.10;;
51358;SDS011;37448;51.588;7.248;2023-02-20T11:42:52;21.45;;;11.73;;
51358;SDS011;37448;51.588;7.248;2023-02-20T11:49:28;20.50;;;11.27;;
51358;SDS011;37448;51.588;7.248;2023-02-20T11:51:30;25.40;;;12.50;;
51358;SDS011;37448;51.588;7.248;2023-02-20T11:53:32;26.52;;;12.27;;
51358;SDS011;37448;51.588;7.248;2023-02-20T11:55:33;23.80;;;11.25;;
51358;SDS011;37448;51.588;7.248;2023-02-20T11:57:35;27.67;;;14.55;;
51358;SDS011;37448;51.588;7.248;2023-02-20T11:59:48;24.83;;;11.65;;
51358;SDS011;37448;51.588;7.248;2023-02-20T12:01:49;24.42;;;11.85;;
51358;SDS011;37448;51.588;7.248;2023-02-20T12:03:53;25.73;;;12.18;;
51358;SDS011;37448;51.588;7.248;2023-02-20T12:05:56;22.52;;;11.82;;
51358;SDS011;37448;51.588;7.248;2023-02-20T12:07:58;25.67;;;12.52;;
51358;SDS011;37448;51.588;7.248;2023-02-20T12:10:02;22.52;;;11.55;;
51358;SDS011;37448;51.588;7.248;2023-02-20T12:12:25;20.52;;;11.65;;
51358;SDS011;37448;51.588;7.248;2023-02-20T12:14:29;24.08;;;11.98;;
51358;SDS011;37448;51.588;7.248;2023-02-20T12:20:57;21.15;;;10.45;;
51358;SDS011;37448;51.588;7.248;2023-02-20T12:25:33;18.60;;;10.95;;
51358;SDS011;37448;51.588;7.248;2023-02-20T12:27:45;22.67;;;11.00;;
51358;SDS011;37448;51.588;7.248;2023-02-20T12:29:50;27.33;;;11.57;;
51358;SDS011;37448;51.588;7.248;2023-02-20T12:37:19;20.27;;;10.35;;
51358;SDS011;37448;51.588;7.248;2023-02-20T12:48:51;24.02;;;11.55;;
51358;SDS011;37448;51.588;7.248;2023-02-20T12:51:17;20.30;;;10.57;;
51358;SDS011;37448;51.588;7.248;2023-02-20T13:02:37;24.23;;;11.35;;
51358;SDS011;37448;51.588;7.248;2023-02-20T13:04:46;22.85;;;10.77;;
51358;SDS011;37448;51.588;7.248;2023-02-20T13:09:21;26.02;;;11.38;;
51358;SDS011;37448;51.588;7.248;2023-02-20T13:11:25;18.42;;;10.02;;
51358;SDS011;37448;51.588;7.248;2023-02-20T13:13:36;22.48;;;11.38;;
51358;SDS011;37448;51.588;7.248;2023-02-20T13:15:49;27.10;;;12.98;;
51358;SDS011;37448;51.588;7.248;2023-02-20T13:18:09;21.00;;;11.77;;
51358;SDS011;37448;51.588;7.248;2023-02-20T13:22:23;17.17;;;10.30;;
51358;SDS011;37448;51.588;7.248;2023-02-20T13:24:27;25.00;;;11.90;;
51358;SDS011;37448;51.588;7.248;2023-02-20T13:28:37;23.55;;;11.50;;
51358;SDS011;37448;51.588;7.248;2023-02-20T13:30:43;23.05;;;12.32;;
51358;SDS011;37448;51.588;7.248;2023-02-20T13:32:43;24.52;;;11.15;;
51358;SDS011;37448;51.588;7.248;2023-02-20T13:34:44;25.35;;;11.68;;
51358;SDS011;37448;51.588;7.248;2023-02-20T13:36:48;20.75;;;11.48;;
51358;SDS011;37448;51.588;7.248;2023-02-20T13:41:17;21.77;;;10.82;;
51358;SDS011;37448;51.588;7.248;2023-02-20T13:43:18;23.25;;;11.43;;
51358;SDS011;37448;51.588;7.248;2023-02-20T13:45:35;24.60;;;11.80;;
51358;SDS011;37448;51.588;7.248;2023-02-20T13:47:36;27.90;;;15.25;;
51358;SDS011;37448;51.588;7.248;2023-02-20T13:51:40;25.65;;;11.80;;
51358;SDS011;37448;51.588;7.248;2023-02-20T13:53:41;22.13;;;12.23;;
51358;SDS011;37448;51.588;7.248;2023-02-20T13:55:48;21.60;;;12.43;;
51358;SDS011;37448;51.588;7.248;2023-02-20T13:57:49;18.92;;;9.93;;
51358;SDS011;37448;51.588;7.248;2023-02-20T13:59:52;24.60;;;12.85;;
51358;SDS011;37448;51.588;7.248;2023-02-20T14:02:00;23.33;;;12.02;;
51358;SDS011;37448;51.588;7.248;2023-02-20T14:04:18;20.08;;;10.60;;